createdAt,value
2018-10-16T00:00:36.971Z,58.10
2018-10-16T00:03:05.030Z,58.60
2018-10-16T00:05:32.989Z,57.90
2018-10-16T00:08:00.991Z,57.70
2018-10-16T00:10:35.259Z,57.70
2018-10-16T00:13:03.231Z,57.70
2018-10-16T00:15:31.211Z,57.90
2018-10-16T00:17:59.213Z,58.00
2018-10-16T00:20:27.223Z,58.00
2018-10-16T00:22:55.195Z,58.20
2018-10-16T00:25:23.174Z,58.40
2018-10-16T00:27:51.134Z,58.80
2018-10-16T00:30:20.160Z,58.50
2018-10-16T00:32:48.493Z,58.50
2018-10-16T00:35:16.371Z,58.50
2018-10-16T00:37:44.348Z,58.80
2018-10-16T00:40:12.726Z,59.00
2018-10-16T00:42:40.679Z,59.30
2018-10-16T00:45:09.559Z,59.80
2018-10-16T00:47:37.853Z,59.20
2018-10-16T00:50:05.830Z,59.20
2018-10-16T00:52:33.787Z,59.40
2018-10-16T00:55:01.866Z,59.40
2018-10-16T00:57:29.763Z,59.60
2018-10-16T00:59:57.816Z,59.70
2018-10-16T01:02:25.882Z,59.80
2018-10-16T01:04:53.893Z,60.00
2018-10-16T01:07:21.871Z,59.90
2018-10-16T01:09:49.887Z,60.00
2018-10-16T01:12:18.163Z,60.00
2018-10-16T01:14:46.128Z,60.40
2018-10-16T01:17:14.135Z,60.80
2018-10-16T01:19:42.227Z,60.70
2018-10-16T01:22:10.192Z,60.50
2018-10-16T01:24:38.528Z,60.70
2018-10-16T01:27:06.491Z,60.60
2018-10-16T01:29:34.506Z,60.90
2018-10-16T01:32:02.536Z,61.50
2018-10-16T01:34:30.815Z,61.80
2018-10-16T01:36:58.828Z,61.80
2018-10-16T01:39:26.914Z,61.70
2018-10-16T01:41:55.133Z,61.90
2018-10-16T01:44:23.120Z,61.80
2018-10-16T01:46:51.283Z,61.70
2018-10-16T01:49:19.457Z,61.60
2018-10-16T01:51:47.504Z,62.20
2018-10-16T01:54:15.473Z,61.70
2018-10-16T01:56:43.462Z,62.30
2018-10-16T01:59:11.480Z,62.60
2018-10-16T02:01:39.454Z,62.50
2018-10-16T02:04:10.763Z,62.50
2018-10-16T02:06:38.823Z,62.50
2018-10-16T02:09:08.750Z,62.70
2018-10-16T02:11:36.708Z,63.80
2018-10-16T02:14:04.787Z,63.10
2018-10-16T02:16:32.754Z,63.00
2018-10-16T02:19:00.739Z,63.30
2018-10-16T02:21:28.796Z,63.40
2018-10-16T02:23:56.953Z,63.40
2018-10-16T02:26:24.941Z,63.10
2018-10-16T02:28:52.912Z,63.40
2018-10-16T02:31:20.983Z,63.50
2018-10-16T02:33:48.943Z,63.90
2018-10-16T02:36:17.024Z,63.90
2018-10-16T02:38:45.095Z,64.10
2018-10-16T02:41:13.105Z,63.80
2018-10-16T02:43:41.135Z,63.50
2018-10-16T02:46:09.093Z,63.40
2018-10-16T02:48:37.431Z,63.50
2018-10-16T02:51:05.745Z,63.80
2018-10-16T02:53:33.998Z,64.00
2018-10-16T02:56:02.026Z,64.00
2018-10-16T02:58:29.980Z,64.20
2018-10-16T03:00:58.259Z,64.10
2018-10-16T03:03:26.536Z,64.20
2018-10-16T03:05:54.506Z,64.20
2018-10-16T03:08:22.469Z,64.60
2018-10-16T03:10:50.423Z,64.10
2018-10-16T03:13:18.524Z,64.20
2018-10-16T03:15:46.473Z,64.20
2018-10-16T03:18:14.534Z,65.00
2018-10-16T03:20:42.554Z,64.50
2018-10-16T03:23:10.505Z,64.40
2018-10-16T03:25:38.523Z,64.40
2018-10-16T03:28:06.523Z,65.40
2018-10-16T03:30:34.577Z,64.60
2018-10-16T03:33:02.691Z,64.80
2018-10-16T03:35:30.650Z,65.10
2018-10-16T03:37:58.727Z,65.00
2018-10-16T03:40:26.819Z,65.00
2018-10-16T03:42:54.874Z,65.30
2018-10-16T03:45:22.820Z,64.80
2018-10-16T03:47:50.876Z,64.90
2018-10-16T03:50:20.735Z,65.20
2018-10-16T03:52:48.813Z,65.20
2018-10-16T03:55:16.869Z,65.40
2018-10-16T03:57:44.846Z,66.20
2018-10-16T04:00:12.907Z,66.50
2018-10-16T04:02:40.991Z,67.30
2018-10-16T04:05:12.775Z,67.00
2018-10-16T04:07:40.814Z,67.20
2018-10-16T04:10:09.203Z,66.70
2018-10-16T04:12:37.359Z,66.40
2018-10-16T04:15:06.688Z,66.30
2018-10-16T04:17:34.678Z,66.30
2018-10-16T04:20:02.610Z,66.50
2018-10-16T04:22:30.657Z,66.80
2018-10-16T04:24:58.590Z,66.90
2018-10-16T04:27:26.711Z,66.90
2018-10-16T04:29:55.178Z,67.00
2018-10-16T04:32:23.319Z,66.90
2018-10-16T04:34:51.325Z,66.80
2018-10-16T04:37:19.320Z,66.80
2018-10-16T04:39:47.362Z,66.90
2018-10-16T04:42:15.417Z,66.30
2018-10-16T04:44:43.442Z,67.20
2018-10-16T04:47:11.416Z,67.10
2018-10-16T04:49:39.369Z,67.00
2018-10-16T04:52:07.316Z,67.10
2018-10-16T04:54:35.319Z,67.70
2018-10-16T04:57:03.555Z,68.60
2018-10-16T04:59:33.163Z,68.20
2018-10-16T05:02:01.702Z,68.40
2018-10-16T05:04:30.401Z,68.10
2018-10-16T05:06:58.888Z,68.30
2018-10-16T05:09:27.399Z,68.40
2018-10-16T05:11:56.014Z,68.50
2018-10-16T05:14:24.591Z,68.60
2018-10-16T05:16:53.395Z,68.70
2018-10-16T05:19:21.475Z,68.10
2018-10-16T05:21:50.043Z,68.60
2018-10-16T05:24:18.380Z,68.50
2018-10-16T05:26:46.737Z,68.50
2018-10-16T05:29:15.708Z,68.40
2018-10-16T05:31:43.638Z,68.40
2018-10-16T05:34:11.582Z,68.40
2018-10-16T05:36:39.529Z,69.00
2018-10-16T05:39:10.167Z,69.10
2018-10-16T05:41:38.168Z,69.50
2018-10-16T05:44:06.139Z,70.00
2018-10-16T05:46:34.167Z,70.40
2018-10-16T05:49:02.140Z,70.20
2018-10-16T05:51:30.387Z,70.30
2018-10-16T05:53:58.387Z,70.60
2018-10-16T05:56:26.592Z,71.30
2018-10-16T05:58:54.609Z,71.90
2018-10-16T06:01:23.178Z,71.90
2018-10-16T06:03:51.196Z,71.60
2018-10-16T06:06:19.150Z,70.70
2018-10-16T06:08:47.156Z,70.40
2018-10-16T06:11:15.333Z,70.00
2018-10-16T06:13:43.753Z,70.00
2018-10-16T06:16:12.233Z,69.80
2018-10-16T06:18:40.213Z,70.00
2018-10-16T06:21:08.212Z,70.00
2018-10-16T06:23:36.251Z,70.40
2018-10-16T06:26:04.457Z,69.60
2018-10-16T06:28:32.414Z,69.50
2018-10-16T06:31:00.369Z,69.50
2018-10-16T06:33:29.721Z,69.30
2018-10-16T06:35:57.760Z,69.10
2018-10-16T06:38:25.761Z,69.20
2018-10-16T06:40:54.007Z,69.40
2018-10-16T06:43:21.781Z,69.40
2018-10-16T06:45:49.810Z,69.40
2018-10-16T06:48:17.988Z,69.40
2018-10-16T06:50:45.803Z,69.00
2018-10-16T06:53:13.806Z,68.70
2018-10-16T06:55:41.961Z,68.60
2018-10-16T06:58:09.939Z,68.40
2018-10-16T07:00:37.894Z,68.60
2018-10-16T07:03:05.960Z,68.80
2018-10-16T07:05:33.891Z,69.00
2018-10-16T07:08:05.544Z,68.70
2018-10-16T07:10:33.505Z,68.80
2018-10-16T07:13:01.447Z,68.80
2018-10-16T07:15:29.428Z,69.00
2018-10-16T07:17:57.520Z,69.40
2018-10-16T07:20:25.484Z,69.80
2018-10-16T07:22:53.424Z,70.10
2018-10-16T07:25:21.487Z,69.80
2018-10-16T07:27:49.412Z,69.30
2018-10-16T07:30:17.441Z,69.10
2018-10-16T07:32:45.323Z,68.70
2018-10-16T07:35:13.330Z,68.40
2018-10-16T07:37:41.480Z,68.60
2018-10-16T07:40:14.047Z,68.30
2018-10-16T07:42:41.995Z,68.10
2018-10-16T07:45:10.091Z,67.80
2018-10-16T07:47:38.336Z,67.70
2018-10-16T07:50:08.591Z,67.40
2018-10-16T07:52:36.561Z,67.30
2018-10-16T07:55:06.264Z,67.10
2018-10-16T07:57:34.223Z,66.80
2018-10-16T08:00:02.211Z,66.80
2018-10-16T08:02:30.155Z,66.70
2018-10-16T08:04:58.096Z,66.60
2018-10-16T08:07:26.067Z,66.40
2018-10-16T08:09:54.052Z,66.30
2018-10-16T08:12:21.984Z,66.30
2018-10-16T08:14:50.323Z,66.10
2018-10-16T08:17:18.337Z,66.00
2018-10-16T08:19:46.227Z,66.00
2018-10-16T08:22:14.434Z,65.90
2018-10-16T08:24:42.393Z,65.90
2018-10-16T08:27:10.323Z,66.00
2018-10-16T08:29:38.328Z,65.80
2018-10-16T08:32:06.652Z,65.60
2018-10-16T08:34:34.574Z,65.30
2018-10-16T08:37:02.573Z,65.40
2018-10-16T08:39:40.102Z,65.20
2018-10-16T08:42:23.413Z,65.10
2018-10-16T08:45:28.095Z,64.80
2018-10-16T08:48:07.726Z,64.70
2018-10-16T08:50:48.474Z,64.80
2018-10-16T08:53:16.472Z,64.80
2018-10-16T08:55:47.913Z,64.80
2018-10-16T08:58:16.149Z,64.60
2018-10-16T09:00:44.088Z,64.50
2018-10-16T09:03:12.070Z,64.70
2018-10-16T09:05:40.066Z,64.40
2018-10-16T09:08:08.008Z,64.20
2018-10-16T09:10:39.207Z,64.10
2018-10-16T09:13:07.224Z,64.10
2018-10-16T09:15:35.143Z,64.00
2018-10-16T09:18:03.231Z,63.70
2018-10-16T09:20:31.151Z,63.60
2018-10-16T09:22:59.096Z,63.80
2018-10-16T09:25:30.242Z,63.80
2018-10-16T09:27:58.185Z,63.50
2018-10-16T09:30:26.147Z,63.10
2018-10-16T09:32:54.109Z,63.10
2018-10-16T09:35:22.055Z,63.10
2018-10-16T09:37:50.374Z,62.80
2018-10-16T09:40:18.339Z,63.30
2018-10-16T09:42:46.380Z,62.90
2018-10-16T09:45:14.689Z,62.80
2018-10-16T09:47:42.607Z,62.60
2018-10-16T09:50:10.962Z,62.70
2018-10-16T09:52:38.998Z,62.30
2018-10-16T09:55:07.612Z,62.40
2018-10-16T09:57:35.559Z,62.20
2018-10-16T10:00:03.979Z,62.10
2018-10-16T10:02:31.936Z,62.10
2018-10-16T10:04:59.872Z,62.00
2018-10-16T10:07:27.851Z,62.00
2018-10-16T10:09:55.827Z,61.80
2018-10-16T10:12:23.919Z,61.70
2018-10-16T10:14:51.861Z,61.60
2018-10-16T10:17:19.793Z,61.40
2018-10-16T10:19:48.035Z,61.30
2018-10-16T10:22:16.080Z,61.00
2018-10-16T10:24:44.020Z,61.10
2018-10-16T10:27:11.993Z,60.70
2018-10-16T10:29:39.959Z,60.60
2018-10-16T10:32:08.351Z,60.10
2018-10-16T10:34:36.300Z,60.20
2018-10-16T10:37:04.772Z,60.60
2018-10-16T10:39:32.736Z,60.60
2018-10-16T10:42:00.709Z,60.40
2018-10-16T10:44:28.671Z,60.40
2018-10-16T10:46:56.642Z,60.30
2018-10-16T10:49:24.619Z,60.30
2018-10-16T10:51:52.580Z,60.40
2018-10-16T10:54:20.556Z,60.30
2018-10-16T10:56:48.587Z,59.80
2018-10-16T10:59:16.488Z,59.90
2018-10-16T11:01:44.451Z,60.20
2018-10-16T11:04:12.450Z,59.90
2018-10-16T11:06:40.415Z,59.80
2018-10-16T11:09:10.338Z,59.60
2018-10-16T11:11:38.680Z,59.50
2018-10-16T11:14:06.696Z,59.60
2018-10-16T11:16:34.632Z,59.90
2018-10-16T11:19:02.641Z,59.60
2018-10-16T11:21:30.631Z,59.40
2018-10-16T11:23:58.595Z,59.30
2018-10-16T11:26:26.567Z,59.30
2018-10-16T11:28:54.514Z,59.40
2018-10-16T11:31:22.459Z,58.60
2018-10-16T11:33:50.484Z,58.00
2018-10-16T11:36:18.465Z,57.50
2018-10-16T11:38:46.387Z,57.80
2018-10-16T11:41:14.715Z,57.80
2018-10-16T11:43:42.724Z,57.90
2018-10-16T11:46:10.663Z,57.40
2018-10-16T11:48:38.806Z,57.30
2018-10-16T11:51:06.736Z,57.20
2018-10-16T11:53:34.878Z,56.70
2018-10-16T11:56:02.980Z,56.60
2018-10-16T11:58:36.500Z,56.60
2018-10-16T12:01:04.596Z,56.70
2018-10-16T12:03:32.551Z,56.50
2018-10-16T12:06:00.697Z,56.30
2018-10-16T12:08:28.657Z,56.20
2018-10-16T12:10:56.654Z,56.20
2018-10-16T12:13:24.592Z,55.90
2018-10-16T12:15:52.696Z,56.00
2018-10-16T12:18:31.267Z,55.90
2018-10-16T12:21:04.765Z,56.00
2018-10-16T12:23:32.952Z,55.90
2018-10-16T12:26:00.955Z,55.90
2018-10-16T12:28:28.986Z,56.10
2018-10-16T12:30:56.988Z,56.50
2018-10-16T12:33:24.918Z,56.20
2018-10-16T12:35:52.930Z,55.10
2018-10-16T12:38:21.001Z,55.50
2018-10-16T12:40:48.991Z,55.40
2018-10-16T12:43:16.976Z,55.10
2018-10-16T12:45:44.879Z,55.00
2018-10-16T12:48:12.875Z,55.00
2018-10-16T12:50:40.839Z,54.70
2018-10-16T12:53:08.924Z,54.80
2018-10-16T12:55:36.779Z,54.40
2018-10-16T12:58:05.520Z,54.30
2018-10-16T13:00:33.467Z,54.90
2018-10-16T13:03:01.464Z,54.20
2018-10-16T13:05:29.356Z,54.80
2018-10-16T13:07:57.325Z,54.50
2018-10-16T13:10:25.270Z,54.20
2018-10-16T13:12:53.231Z,53.70
2018-10-16T13:15:21.159Z,53.90
2018-10-16T13:17:49.151Z,54.10
2018-10-16T13:20:17.162Z,54.00
2018-10-16T13:22:46.768Z,54.40
2018-10-16T13:25:15.476Z,54.60
2018-10-16T13:27:43.561Z,54.70
2018-10-16T13:30:17.240Z,54.90
2018-10-16T13:32:45.671Z,54.70
2018-10-16T13:35:15.020Z,54.90
2018-10-16T13:37:45.051Z,54.90
2018-10-16T13:40:13.298Z,54.90
2018-10-16T13:42:41.186Z,55.10
2018-10-16T13:45:13.185Z,55.10
2018-10-16T13:47:41.116Z,54.90
2018-10-16T13:50:11.415Z,55.10
2018-10-16T13:52:39.509Z,54.90
2018-10-16T13:55:08.295Z,55.00
2018-10-16T13:57:36.247Z,54.90
2018-10-16T14:00:10.356Z,54.50
2018-10-16T14:02:38.313Z,54.50
2018-10-16T14:05:06.437Z,54.60
2018-10-16T14:07:34.440Z,54.90
2018-10-16T14:10:02.417Z,55.40
2018-10-16T14:12:30.351Z,54.50
2018-10-16T14:15:02.206Z,54.50
2018-10-16T14:17:30.183Z,54.30
2018-10-16T14:19:58.137Z,54.80
2018-10-16T14:22:26.059Z,54.20
2018-10-16T14:24:54.405Z,54.40
2018-10-16T14:27:22.362Z,54.30
2018-10-16T14:29:50.340Z,54.70
2018-10-16T14:32:18.520Z,54.90
2018-10-16T14:34:46.279Z,54.70
2018-10-16T14:37:14.186Z,54.80
2018-10-16T14:39:42.426Z,54.80
2018-10-16T14:42:10.411Z,54.80
2018-10-16T14:44:38.420Z,55.00
2018-10-16T14:49:39.752Z,55.00
2018-10-16T14:52:07.751Z,55.00
2018-10-16T14:54:35.917Z,55.20
2018-10-16T14:57:03.923Z,55.20
2018-10-16T14:59:31.791Z,55.40
2018-10-16T15:01:59.816Z,55.30
2018-10-16T15:04:27.743Z,55.20
2018-10-16T15:06:55.713Z,55.40
2018-10-16T15:09:23.697Z,55.50
2018-10-16T15:11:51.691Z,55.50
2018-10-16T15:14:19.669Z,55.50
2018-10-16T15:16:47.616Z,55.70
2018-10-16T15:19:15.593Z,56.20
2018-10-16T15:21:43.570Z,56.50
2018-10-16T15:24:11.556Z,56.60
2018-10-16T15:26:39.484Z,56.90
2018-10-16T15:29:07.479Z,57.10
2018-10-16T15:31:35.434Z,57.30
2018-10-16T15:34:03.791Z,57.60
2018-10-16T15:36:31.739Z,58.00
2018-10-16T15:38:59.697Z,58.10
2018-10-16T15:41:27.660Z,58.30
2018-10-16T15:43:55.729Z,58.50
2018-10-16T15:46:23.647Z,58.50
2018-10-16T15:48:51.637Z,58.70
2018-10-16T15:51:19.676Z,58.60
2018-10-16T15:53:47.658Z,58.70
2018-10-16T15:56:15.807Z,58.60
2018-10-16T15:58:43.759Z,59.00
2018-10-16T16:01:11.716Z,59.30
2018-10-16T16:03:39.662Z,59.50
2018-10-16T16:06:07.661Z,59.70
2018-10-16T16:08:35.623Z,59.90
2018-10-16T16:11:03.588Z,59.90
2018-10-16T16:13:31.823Z,60.00
2018-10-16T16:15:59.777Z,60.00
2018-10-16T16:18:27.853Z,60.20
2018-10-16T16:20:56.141Z,60.70
2018-10-16T16:23:24.915Z,61.10
2018-10-16T16:25:52.988Z,62.00
2018-10-16T16:28:21.240Z,61.30
2018-10-16T16:30:49.171Z,61.50
2018-10-16T16:33:17.115Z,61.80
2018-10-16T16:35:45.401Z,62.10
2018-10-16T16:38:13.498Z,62.40
2018-10-16T16:40:41.384Z,62.60
2018-10-16T16:43:09.374Z,62.80
2018-10-16T16:45:37.355Z,63.00
2018-10-16T16:48:05.417Z,63.00
2018-10-16T16:50:33.378Z,63.20
2018-10-16T16:53:01.343Z,63.20
2018-10-16T16:55:29.315Z,63.40
2018-10-16T16:57:57.253Z,63.60
2018-10-16T17:00:25.223Z,63.90
2018-10-16T17:02:57.003Z,64.50
2018-10-16T17:05:25.332Z,65.30
2018-10-16T17:07:53.322Z,65.40
2018-10-16T17:10:21.284Z,64.90
2018-10-16T17:12:49.251Z,65.10
2018-10-16T17:15:17.176Z,65.20
2018-10-16T17:17:46.023Z,65.50
2018-10-16T17:20:14.274Z,65.50
2018-10-16T17:22:42.309Z,65.70
2018-10-16T17:25:12.142Z,66.50
2018-10-16T17:27:40.031Z,66.60
2018-10-16T17:30:10.201Z,67.00
2018-10-16T17:32:38.161Z,67.10
2018-10-16T17:35:06.717Z,67.40
2018-10-16T17:37:34.665Z,67.40
2018-10-16T17:40:02.642Z,67.40
2018-10-16T17:42:30.916Z,67.30
2018-10-16T17:44:58.858Z,67.40
2018-10-16T17:47:26.778Z,67.70
2018-10-16T17:49:55.031Z,68.00
2018-10-16T17:52:22.972Z,68.00
2018-10-16T17:54:50.913Z,67.70
2018-10-16T17:57:18.866Z,67.90
2018-10-16T17:59:47.110Z,68.30
2018-10-16T18:02:15.077Z,67.90
2018-10-16T18:04:43.134Z,68.80
2018-10-16T18:07:10.991Z,68.80
2018-10-16T18:09:38.958Z,68.60
2018-10-16T18:12:07.147Z,68.60
2018-10-16T18:14:35.122Z,69.00
2018-10-16T18:17:03.088Z,69.20
2018-10-16T18:19:34.873Z,69.10
2018-10-16T18:22:02.847Z,69.00
2018-10-16T18:24:30.798Z,69.80
2018-10-16T18:26:58.817Z,70.40
2018-10-16T18:29:26.725Z,70.50
2018-10-16T18:31:54.661Z,70.70
2018-10-16T18:34:25.860Z,70.00
2018-10-16T18:36:53.786Z,70.90
2018-10-16T18:39:21.747Z,70.90
2018-10-16T18:41:49.672Z,71.20
2018-10-16T18:44:17.630Z,71.50
2018-10-16T18:46:45.910Z,71.60
2018-10-16T18:49:13.864Z,71.80
2018-10-16T18:51:41.800Z,71.70
2018-10-16T18:54:09.773Z,71.90
2018-10-16T18:56:37.713Z,72.00
2018-10-16T18:59:05.701Z,71.30
2018-10-16T19:01:33.655Z,71.50
2018-10-16T19:04:01.585Z,71.40
2018-10-16T19:06:29.548Z,71.70
2018-10-16T19:08:57.484Z,71.60
2018-10-16T19:11:25.415Z,71.60
2018-10-16T19:13:53.476Z,71.50
2018-10-16T19:16:21.389Z,71.60
2018-10-16T19:18:49.340Z,72.20
2018-10-16T19:21:17.348Z,72.30
2018-10-16T19:23:45.391Z,72.80
2018-10-16T19:26:13.357Z,71.90
2018-10-16T19:28:41.345Z,72.30
2018-10-16T19:31:09.309Z,72.70
2018-10-16T19:33:37.348Z,72.90
2018-10-16T19:36:05.922Z,73.20
2018-10-16T19:38:33.943Z,73.20
2018-10-16T19:41:01.887Z,73.20
2018-10-16T19:43:29.923Z,73.60
2018-10-16T19:45:58.415Z,74.40
2018-10-16T19:48:26.443Z,73.40
2018-10-16T19:50:54.522Z,73.50
2018-10-16T19:53:22.590Z,73.40
2018-10-16T19:55:50.527Z,73.40
2018-10-16T19:58:18.524Z,73.00
2018-10-16T20:00:46.459Z,73.00
2018-10-16T20:03:14.502Z,73.30
2018-10-16T20:05:43.967Z,73.10
2018-10-16T20:08:11.915Z,72.90
2018-10-16T20:10:39.883Z,72.70
2018-10-16T20:13:07.851Z,72.90
2018-10-16T20:15:35.915Z,72.90
2018-10-16T20:18:03.755Z,72.50
2018-10-16T20:20:31.721Z,72.50
2018-10-16T20:22:59.698Z,72.60
2018-10-16T20:25:27.701Z,72.30
2018-10-16T20:27:55.667Z,72.30
2018-10-16T20:30:23.644Z,73.00
2018-10-16T20:32:51.599Z,73.50
2018-10-16T20:35:19.612Z,73.30
2018-10-16T20:37:47.794Z,72.90
2018-10-16T20:40:15.738Z,72.70
2018-10-16T20:42:43.766Z,72.40
2018-10-16T20:45:11.723Z,72.00
2018-10-16T20:47:39.899Z,72.50
2018-10-16T20:50:07.779Z,72.60
2018-10-16T20:52:35.763Z,72.30
2018-10-16T20:55:03.875Z,72.10
2018-10-16T20:57:31.794Z,72.20
2018-10-16T21:00:00.044Z,72.20
2018-10-16T21:02:28.073Z,72.30
2018-10-16T21:04:56.250Z,72.30
2018-10-16T21:07:24.081Z,72.50
2018-10-16T21:09:51.993Z,72.70
2018-10-16T21:12:19.955Z,72.70
2018-10-16T21:14:48.192Z,72.50
2018-10-16T21:17:16.151Z,72.50
2018-10-16T21:26:59.970Z,72.70
2018-10-16T21:29:28.102Z,73.70
2018-10-16T21:31:56.063Z,74.00
2018-10-16T21:34:24.035Z,73.70
2018-10-16T21:36:52.023Z,73.20
2018-10-16T21:39:20.042Z,72.90
2018-10-16T21:41:48.039Z,72.60
2018-10-16T21:44:16.042Z,72.50
2018-10-16T21:46:44.090Z,72.70
2018-10-16T21:49:12.232Z,72.90
2018-10-16T21:51:40.125Z,73.20
2018-10-16T21:54:08.114Z,73.60
2018-10-16T21:56:42.783Z,73.70
2018-10-16T21:59:10.830Z,73.30
2018-10-16T22:01:44.163Z,73.70
2018-10-16T22:04:12.134Z,73.40
2018-10-16T22:06:40.121Z,73.00
2018-10-16T22:09:11.107Z,73.30
2018-10-16T22:11:39.090Z,74.10
2018-10-16T22:14:07.542Z,75.20
2018-10-16T22:16:35.827Z,75.90
2018-10-16T22:19:04.064Z,75.50
2018-10-16T22:21:31.970Z,76.00
2018-10-16T22:24:03.618Z,76.60
2018-10-16T22:26:31.828Z,76.80
2018-10-16T22:29:00.312Z,77.00
2018-10-16T22:31:28.273Z,76.70
2018-10-16T22:33:56.235Z,76.40
2018-10-16T22:36:24.809Z,77.40
2018-10-16T22:38:52.822Z,77.10
2018-10-16T22:41:20.819Z,77.30
2018-10-16T22:43:48.910Z,77.10
2018-10-16T22:46:16.864Z,77.40
2018-10-16T22:48:44.872Z,76.90
2018-10-16T22:51:12.842Z,77.50
2018-10-16T22:53:44.112Z,77.20
2018-10-16T22:56:12.066Z,77.00
2018-10-16T22:58:40.075Z,77.10
2018-10-16T23:01:08.115Z,77.60
2018-10-16T23:03:36.004Z,77.90
2018-10-16T23:06:04.574Z,78.10
2018-10-16T23:08:32.562Z,77.90
2018-10-16T23:11:00.679Z,77.80
2018-10-16T23:13:28.590Z,77.80
2018-10-16T23:15:56.542Z,77.60
2018-10-16T23:18:24.486Z,77.90
2018-10-16T23:20:52.450Z,77.60
2018-10-16T23:23:20.403Z,77.60
2018-10-16T23:25:48.370Z,77.50
2018-10-16T23:28:16.315Z,77.50
2018-10-16T23:30:44.375Z,77.40
2018-10-16T23:33:12.341Z,77.00
2018-10-16T23:35:40.282Z,76.80
2018-10-16T23:38:08.226Z,77.00
2018-10-16T23:40:36.215Z,77.30
2018-10-16T23:43:04.523Z,77.40
2018-10-16T23:45:32.443Z,77.30
2018-10-16T23:48:00.404Z,76.90
2018-10-16T23:50:28.407Z,76.80
2018-10-16T23:52:56.420Z,76.90
2018-10-16T23:55:28.351Z,76.70
2018-10-16T23:57:56.302Z,77.00
